createdAt,value
2022-10-10T05:23:37.990Z,19.70
2022-10-10T05:28:41.788Z,20.30
2022-10-10T05:33:45.306Z,21.38
2022-10-10T05:38:50.383Z,31.15
2022-10-10T05:43:53.715Z,26.77
2022-10-10T05:48:57.526Z,26.38
2022-10-10T05:54:02.589Z,22.95
2022-10-10T05:59:06.150Z,22.95
2022-10-10T06:04:09.540Z,27.15
2022-10-10T06:09:14.248Z,24.48
2022-10-10T06:14:17.897Z,28.60
2022-10-10T06:19:21.398Z,21.52
2022-10-10T06:24:26.102Z,24.33
2022-10-10T06:29:31.085Z,23.77
2022-10-10T06:34:34.537Z,26.65
2022-10-10T06:39:39.476Z,23.77
2022-10-10T06:44:42.876Z,25.23
2022-10-10T06:49:46.263Z,24.63
2022-10-10T06:54:51.443Z,27.65
2022-10-10T06:59:55.075Z,22.58
2022-10-10T07:04:58.417Z,22.30
2022-10-10T07:10:03.354Z,22.77
2022-10-10T07:15:08.085Z,26.20
2022-10-10T07:20:11.519Z,25.52
2022-10-10T07:25:16.402Z,28.33
2022-10-10T07:30:20.131Z,28.75
2022-10-10T07:35:24.277Z,22.17
2022-10-10T07:40:29.110Z,23.15
2022-10-10T07:45:32.536Z,25.30
2022-10-10T07:50:37.415Z,24.02
2022-10-10T07:55:43.319Z,21.92
2022-10-10T08:00:46.640Z,21.58
2022-10-10T08:05:50.685Z,22.10
2022-10-10T08:10:55.395Z,29.02
2022-10-10T08:15:58.847Z,22.48
2022-10-10T08:21:03.026Z,22.85
2022-10-10T08:26:10.399Z,23.40
2022-10-10T08:31:15.651Z,18.60
2022-10-10T08:36:21.250Z,23.73
2022-10-10T08:41:37.963Z,18.70
2022-10-10T08:46:45.449Z,21.30
2022-10-10T08:51:54.134Z,23.75
2022-10-10T08:57:01.957Z,21.75
2022-10-10T09:02:38.237Z,19.95
2022-10-10T09:08:13.419Z,17.50
2022-10-10T09:13:26.951Z,18.58
2022-10-10T09:18:41.481Z,18.17
2022-10-10T09:23:51.095Z,20.80
2022-10-10T09:28:59.909Z,17.05
2022-10-10T09:34:08.113Z,14.70
2022-10-10T09:39:22.263Z,16.75
2022-10-10T09:44:27.446Z,16.55
2022-10-10T09:49:31.261Z,18.42
2022-10-10T09:54:34.590Z,18.10
2022-10-10T09:59:42.024Z,13.82
2022-10-10T10:04:45.896Z,16.58
2022-10-10T10:09:51.211Z,12.10
2022-10-10T10:15:01.423Z,18.88
2022-10-10T10:20:10.726Z,13.15
2022-10-10T10:25:31.714Z,15.25
2022-10-10T10:30:36.778Z,12.85
2022-10-10T10:35:46.305Z,17.02
2022-10-10T10:40:59.193Z,13.60
2022-10-10T10:51:41.353Z,10.88
2022-10-10T10:56:51.853Z,9.32
2022-10-10T11:02:26.221Z,12.85
2022-10-10T11:07:46.590Z,7.45
2022-10-10T11:12:59.983Z,10.75
2022-10-10T11:18:11.616Z,10.18
2022-10-10T11:23:19.841Z,11.20
2022-10-10T11:28:27.593Z,15.00
2022-10-10T11:33:36.022Z,10.38
2022-10-10T11:38:44.803Z,10.13
2022-10-10T11:43:56.492Z,10.10
2022-10-10T11:49:07.781Z,7.63
2022-10-10T11:54:21.861Z,8.95
2022-10-10T11:59:29.503Z,11.68
2022-10-10T12:04:38.085Z,8.85
2022-10-10T12:09:44.646Z,12.98
2022-10-10T12:14:54.168Z,9.68
2022-10-10T12:20:11.270Z,10.35
2022-10-10T12:25:36.305Z,14.75
2022-10-10T12:31:00.804Z,8.93
2022-10-10T12:36:39.700Z,12.43
2022-10-10T12:41:57.093Z,11.43
2022-10-10T12:47:46.297Z,12.38
2022-10-10T12:52:55.784Z,8.73
2022-10-10T12:58:04.149Z,8.02
2022-10-10T13:03:13.990Z,6.13
2022-10-10T13:08:20.360Z,8.55
2022-10-10T13:13:25.071Z,7.30
2022-10-10T13:18:39.247Z,8.45
2022-10-10T13:29:20.838Z,8.85
2022-10-10T13:34:27.602Z,10.10
2022-10-10T13:39:35.645Z,15.50
2022-10-10T13:44:52.039Z,8.23
2022-10-10T13:49:56.361Z,8.88
2022-10-10T13:55:16.380Z,7.95
2022-10-10T14:00:23.732Z,9.25
2022-10-10T14:05:31.477Z,10.73
2022-10-10T14:10:37.131Z,6.38
2022-10-10T14:15:48.318Z,7.95
2022-10-10T14:20:53.422Z,7.15
2022-10-10T14:25:58.653Z,7.95
2022-10-10T14:31:04.447Z,8.70
2022-10-10T14:36:08.812Z,7.55
2022-10-10T14:41:14.108Z,6.32
2022-10-10T14:46:20.414Z,6.40
2022-10-10T14:51:34.158Z,11.38
2022-10-10T14:57:06.569Z,7.15
2022-10-10T15:02:06.426Z,7.55
2022-10-10T15:07:13.763Z,5.05
2022-10-10T15:12:18.662Z,8.13
2022-10-10T15:17:24.434Z,6.38
2022-10-10T15:22:29.376Z,8.52
2022-10-10T15:27:33.318Z,6.90
2022-10-10T15:32:40.778Z,5.85
2022-10-10T15:37:44.733Z,8.52
2022-10-10T15:42:49.566Z,9.52
2022-10-10T15:47:54.242Z,9.05
2022-10-10T15:52:57.597Z,8.93
2022-10-10T15:58:03.420Z,12.48
2022-10-10T16:03:08.422Z,13.75
2022-10-10T16:08:12.432Z,14.93
2022-10-10T16:13:16.010Z,7.50
2022-10-10T16:18:20.726Z,10.05
2022-10-10T16:23:24.325Z,11.15
2022-10-10T16:28:27.725Z,10.68
2022-10-10T16:33:34.242Z,12.27
2022-10-10T16:38:37.803Z,13.13
2022-10-10T16:43:43.254Z,12.30
2022-10-10T16:48:50.053Z,10.85
2022-10-10T16:53:53.399Z,12.00
2022-10-10T16:58:57.027Z,14.90
2022-10-10T17:04:03.271Z,16.52
2022-10-10T17:09:08.193Z,11.25
2022-10-10T17:14:11.477Z,11.18
2022-10-10T17:19:16.151Z,9.32
2022-10-10T17:24:19.504Z,16.65
2022-10-10T17:29:23.759Z,13.93
2022-10-10T17:34:28.509Z,16.85
2022-10-10T17:39:32.080Z,14.13
2022-10-10T17:44:41.977Z,11.70
2022-10-10T17:49:49.502Z,14.57
2022-10-10T17:54:52.858Z,9.98
2022-10-10T17:59:56.228Z,14.75
2022-10-10T18:05:01.002Z,15.10
2022-10-10T18:10:05.270Z,12.80
2022-10-10T18:15:09.900Z,8.13
2022-10-10T18:20:17.273Z,11.85
2022-10-10T18:25:25.053Z,15.00
2022-10-10T18:30:29.926Z,18.55
2022-10-10T18:35:35.484Z,24.08
2022-10-10T18:40:39.048Z,28.08
2022-10-10T18:45:42.693Z,20.30
2022-10-10T18:50:47.727Z,13.38
2022-10-10T18:55:56.755Z,12.10
2022-10-10T19:01:03.505Z,12.65
2022-10-10T19:06:10.656Z,17.30
2022-10-10T19:11:21.253Z,9.63
2022-10-10T19:16:24.730Z,12.57
2022-10-10T19:21:31.462Z,8.80
2022-10-10T19:26:35.889Z,11.82
2022-10-10T19:31:39.582Z,11.68
2022-10-10T19:36:44.958Z,12.82
2022-10-10T19:41:48.510Z,11.38
2022-10-10T19:46:51.882Z,19.65
2022-10-10T19:51:56.543Z,13.07
2022-10-10T19:57:00.044Z,13.93
2022-10-10T20:02:03.679Z,15.32
2022-10-10T20:07:08.602Z,13.55
2022-10-10T20:12:11.968Z,11.30
2022-10-10T20:17:15.320Z,10.23
2022-10-10T20:22:20.359Z,11.18
2022-10-10T20:27:25.717Z,11.30
2022-10-10T20:32:32.240Z,10.18
2022-10-10T20:37:37.021Z,10.70
2022-10-10T20:42:40.637Z,16.15
2022-10-10T20:47:44.113Z,13.52
2022-10-10T20:52:48.975Z,14.43
2022-10-10T20:57:52.343Z,15.48
2022-10-10T21:02:56.186Z,16.38
2022-10-10T21:08:01.734Z,17.15
2022-10-10T21:13:05.085Z,18.20
2022-10-10T21:18:08.982Z,15.23
2022-10-10T21:23:13.638Z,16.85
2022-10-10T21:28:17.228Z,15.77
2022-10-10T21:33:22.447Z,13.68
2022-10-10T21:38:27.644Z,13.63
2022-10-10T21:43:31.464Z,12.10
2022-10-10T21:48:34.957Z,12.70
2022-10-10T21:53:40.164Z,13.95
2022-10-10T21:58:46.176Z,11.68
2022-10-10T22:03:51.150Z,14.50
2022-10-10T22:08:58.178Z,14.52
2022-10-10T22:14:03.260Z,14.32
2022-10-10T22:19:07.639Z,13.10
2022-10-10T22:24:12.517Z,11.50
2022-10-10T22:29:15.857Z,12.20
2022-10-10T22:34:19.219Z,11.00
2022-10-10T22:39:23.933Z,14.27
2022-10-10T22:44:27.443Z,15.98
2022-10-10T22:49:33.611Z,12.50
2022-10-10T22:54:38.611Z,13.65
2022-10-10T22:59:41.932Z,11.88
2022-10-10T23:04:45.274Z,11.35
2022-10-10T23:09:50.045Z,11.85
2022-10-10T23:14:53.437Z,11.02
2022-10-10T23:19:57.201Z,9.43
2022-10-10T23:25:01.867Z,11.73
2022-10-10T23:30:06.007Z,12.55
2022-10-10T23:35:10.544Z,14.25
2022-10-10T23:40:15.549Z,10.68
2022-10-10T23:45:19.397Z,12.85
2022-10-10T23:50:22.732Z,9.55
2022-10-10T23:55:27.732Z,11.20
